Time;durP1;ratioP1;P1;durP2;ratioP2;P2;SDS_P1;SDS_P2;PMS_P1;PMS_P2;Temp;Humidity;BMP_temperature;BMP_pressure;BME280_temperature;BME280_humidity;BME280_pressure;Samples;Min_cycle;Max_cycle;Signal;HPM_P1;HPM_P2
2024/03/20 00:00:33;;;;;;;30.88;6.95;;;;;;;;;;5053744;28;20471;-39
2024/03/20 00:03:00;;;;;;;10.57;6.00;;;;;;;;;;5045679;28;20037;-38
2024/03/20 00:05:27;;;;;;;13.27;5.93;;;;;;;;;;5046629;28;20029;-40
2024/03/20 00:07:55;;;;;;;13.95;5.60;;;;;;;;;;5054229;28;20037;-40
2024/03/20 00:10:22;;;;;;;13.70;5.78;;;;;;;;;;5053854;28;20059;-40
2024/03/20 00:12:49;;;;;;;10.20;5.47;;;;;;;;;;5053622;28;20094;-40
2024/03/20 00:15:16;;;;;;;8.95;5.15;;;;;;;;;;5054038;28;20035;-38
2024/03/20 00:17:44;;;;;;;8.32;5.35;;;;;;;;;;5052518;28;20082;-38
2024/03/20 00:20:11;;;;;;;9.82;5.18;;;;;;;;;;5048260;28;20078;-40
2024/03/20 00:22:38;;;;;;;7.55;4.82;;;;;;;;;;5053557;28;20033;-40
2024/03/20 00:25:06;;;;;;;8.50;4.70;;;;;;;;;;5053812;28;20025;-40
2024/03/20 00:27:33;;;;;;;7.80;4.60;;;;;;;;;;5053702;28;20033;-38
2024/03/20 00:30:00;;;;;;;6.43;4.78;;;;;;;;;;5053694;28;20045;-38
2024/03/20 00:32:28;;;;;;;6.13;4.95;;;;;;;;;;5039923;28;20051;-38
2024/03/20 00:34:55;;;;;;;6.18;4.80;;;;;;;;;;5044564;28;20036;-38
2024/03/20 00:37:22;;;;;;;11.48;4.78;;;;;;;;;;5049330;28;20026;-39
2024/03/20 00:39:49;;;;;;;13.35;5.32;;;;;;;;;;5046886;28;20020;-39
2024/03/20 00:42:16;;;;;;;11.52;5.95;;;;;;;;;;5046973;28;20029;-36
2024/03/20 00:44:43;;;;;;;11.32;6.07;;;;;;;;;;5042518;28;20443;-38
2024/03/20 00:47:10;;;;;;;10.07;5.53;;;;;;;;;;5047281;28;20455;-38
2024/03/20 00:49:40;;;;;;;8.18;5.47;;;;;;;;;;5047020;28;20045;-38
2024/03/20 00:52:08;;;;;;;11.57;5.18;;;;;;;;;;5053024;28;20037;-40
2024/03/20 00:54:35;;;;;;;7.28;5.68;;;;;;;;;;5048385;28;20029;-39
2024/03/20 00:57:02;;;;;;;7.60;5.50;;;;;;;;;;5044178;28;20483;-38
2024/03/20 00:59:30;;;;;;;8.52;5.60;;;;;;;;;;5031383;28;20033;-39
2024/03/20 01:01:57;;;;;;;9.75;5.00;;;;;;;;;;5026747;28;20519;-39
2024/03/20 01:04:24;;;;;;;8.48;4.68;;;;;;;;;;5030722;28;20030;-39
2024/03/20 01:06:51;;;;;;;6.22;3.80;;;;;;;;;;5032845;28;20064;-38
2024/03/20 01:09:21;;;;;;;8.52;4.35;;;;;;;;;;5029707;28;20448;-40
2024/03/20 01:11:48;;;;;;;7.40;3.65;;;;;;;;;;5020705;28;20547;-40
2024/03/20 01:14:15;;;;;;;10.23;4.00;;;;;;;;;;5031700;28;20033;-37
2024/03/20 01:16:42;;;;;;;6.35;3.95;;;;;;;;;;5030738;28;20045;-39
2024/03/20 01:19:10;;;;;;;5.28;3.70;;;;;;;;;;5019389;28;20029;-41
2024/03/20 01:21:37;;;;;;;5.80;3.90;;;;;;;;;;5028359;28;20033;-39
2024/03/20 01:24:04;;;;;;;10.25;4.40;;;;;;;;;;5015459;28;20054;-38
2024/03/20 01:26:31;;;;;;;6.90;3.80;;;;;;;;;;5016159;28;20025;-39
2024/03/20 01:28:59;;;;;;;12.75;4.05;;;;;;;;;;5014806;28;20030;-38
2024/03/20 01:31:26;;;;;;;9.10;3.65;;;;;;;;;;5015122;28;20040;-39
2024/03/20 01:33:53;;;;;;;7.30;3.70;;;;;;;;;;5028502;28;20491;-37
2024/03/20 01:36:20;;;;;;;8.48;3.42;;;;;;;;;;5022114;28;20040;-39
2024/03/20 01:38:47;;;;;;;7.63;3.47;;;;;;;;;;5014748;28;20036;-38
2024/03/20 01:41:14;;;;;;;5.00;3.25;;;;;;;;;;5031536;28;20022;-37
2024/03/20 01:43:41;;;;;;;8.05;3.15;;;;;;;;;;5018005;28;20463;-39
2024/03/20 01:46:34;;;;;;;5.32;3.00;;;;;;;;;;5034803;28;20032;-39
2024/03/20 01:49:02;;;;;;;6.68;3.35;;;;;;;;;;5028100;28;20127;-38
2024/03/20 01:51:29;;;;;;;6.63;3.10;;;;;;;;;;5019157;28;20038;-40
2024/03/20 01:53:58;;;;;;;4.57;3.17;;;;;;;;;;5025481;28;20435;-39
2024/03/20 01:56:25;;;;;;;5.57;3.00;;;;;;;;;;5041031;28;20091;-38
2024/03/20 01:58:56;;;;;;;5.90;3.22;;;;;;;;;;5029727;28;20056;-38
2024/03/20 02:01:26;;;;;;;7.72;2.90;;;;;;;;;;5029664;28;20095;-39
2024/03/20 02:03:56;;;;;;;6.65;2.90;;;;;;;;;;5023431;28;20036;-36
2024/03/20 02:06:24;;;;;;;7.63;3.00;;;;;;;;;;5030574;28;20045;-39
2024/03/20 02:08:52;;;;;;;5.47;2.80;;;;;;;;;;5029630;28;20103;-38
2024/03/20 02:11:24;;;;;;;5.40;2.60;;;;;;;;;;5031742;28;20388;-37
2024/03/20 02:13:52;;;;;;;4.93;2.70;;;;;;;;;;5031255;28;20095;-38
2024/03/20 02:16:20;;;;;;;7.95;2.00;;;;;;;;;;5024118;28;20444;-38
2024/03/20 02:18:48;;;;;;;8.40;2.70;;;;;;;;;;5031797;28;20022;-36
2024/03/20 02:21:15;;;;;;;4.32;2.50;;;;;;;;;;5030043;28;20083;-37
2024/03/20 02:23:42;;;;;;;3.03;2.17;;;;;;;;;;5026255;28;20021;-37
2024/03/20 02:26:11;;;;;;;5.50;2.42;;;;;;;;;;5019514;28;20030;-36
2024/03/20 02:28:39;;;;;;;6.50;2.17;;;;;;;;;;5031839;28;20057;-36
2024/03/20 02:31:06;;;;;;;5.40;2.35;;;;;;;;;;5044972;28;20517;-37
2024/03/20 02:33:33;;;;;;;6.03;2.40;;;;;;;;;;5023575;28;20430;-36
2024/03/20 02:36:01;;;;;;;5.80;2.17;;;;;;;;;;5028223;28;20033;-37
2024/03/20 02:38:31;;;;;;;4.93;2.03;;;;;;;;;;5031626;28;20066;-36
2024/03/20 02:40:59;;;;;;;3.72;2.30;;;;;;;;;;5031952;28;20439;-37
2024/03/20 02:43:26;;;;;;;3.53;2.33;;;;;;;;;;5031741;28;20026;-36
2024/03/20 02:45:53;;;;;;;5.65;2.05;;;;;;;;;;5031088;28;20076;-36
2024/03/20 02:48:20;;;;;;;5.45;2.03;;;;;;;;;;5031168;28;20044;-37
2024/03/20 02:50:47;;;;;;;4.18;2.10;;;;;;;;;;5031126;28;20037;-36
2024/03/20 02:53:14;;;;;;;2.92;2.13;;;;;;;;;;5031099;28;20472;-37
2024/03/20 02:55:43;;;;;;;4.88;1.83;;;;;;;;;;5030962;28;20048;-36
2024/03/20 02:58:10;;;;;;;2.45;1.88;;;;;;;;;;5031117;28;20030;-36
2024/03/20 03:00:37;;;;;;;5.03;1.70;;;;;;;;;;5031106;28;20021;-36
2024/03/20 03:03:04;;;;;;;3.92;2.20;;;;;;;;;;5031470;28;20022;-37
2024/03/20 03:05:31;;;;;;;4.70;2.03;;;;;;;;;;5031586;28;20106;-37
2024/03/20 03:07:58;;;;;;;5.95;2.20;;;;;;;;;;5031642;28;20430;-37
2024/03/20 03:10:27;;;;;;;4.40;1.80;;;;;;;;;;5031462;28;20032;-37
2024/03/20 03:12:54;;;;;;;4.32;2.17;;;;;;;;;;5031709;28;20033;-37
2024/03/20 03:15:21;;;;;;;2.60;1.92;;;;;;;;;;5031502;28;20539;-37
2024/03/20 03:17:50;;;;;;;3.40;1.73;;;;;;;;;;5031365;28;20058;-38
2024/03/20 03:20:19;;;;;;;3.13;1.92;;;;;;;;;;5031540;28;20640;-37
2024/03/20 03:22:46;;;;;;;4.93;1.60;;;;;;;;;;5031488;28;20036;-37
2024/03/20 03:25:13;;;;;;;5.72;2.00;;;;;;;;;;5031376;28;20523;-37
2024/03/20 03:27:42;;;;;;;3.10;1.95;;;;;;;;;;5031371;28;20052;-37
2024/03/20 03:30:09;;;;;;;3.40;1.77;;;;;;;;;;5031234;28;20025;-37
2024/03/20 03:32:37;;;;;;;4.97;1.60;;;;;;;;;;5033174;28;20025;-37
2024/03/20 03:35:04;;;;;;;2.30;1.80;;;;;;;;;;5035360;28;20100;-37
2024/03/20 03:37:31;;;;;;;4.78;1.75;;;;;;;;;;5035346;28;20021;-37
2024/03/20 03:40:00;;;;;;;22.13;2.30;;;;;;;;;;5035127;28;20040;-37
2024/03/20 03:42:27;;;;;;;26.95;1.95;;;;;;;;;;5035064;28;20365;-37
2024/03/20 03:44:54;;;;;;;18.08;1.58;;;;;;;;;;5035149;28;20034;-37
2024/03/20 03:47:21;;;;;;;21.70;1.48;;;;;;;;;;5035211;28;20026;-37
2024/03/20 03:49:48;;;;;;;12.30;0.85;;;;;;;;;;5034883;28;20029;-37
2024/03/20 03:52:15;;;;;;;6.63;1.08;;;;;;;;;;5034939;28;20479;-37
2024/03/20 03:54:42;;;;;;;6.80;0.90;;;;;;;;;;5041810;28;20469;-37
2024/03/20 03:57:10;;;;;;;6.90;1.05;;;;;;;;;;5074802;28;20036;-37
2024/03/20 03:59:37;;;;;;;7.82;0.95;;;;;;;;;;5074877;28;20079;-37
2024/03/20 04:02:04;;;;;;;5.45;1.00;;;;;;;;;;5074826;28;20033;-37
2024/03/20 04:04:31;;;;;;;3.33;0.88;;;;;;;;;;5074850;28;20063;-36
2024/03/20 04:06:58;;;;;;;3.90;1.00;;;;;;;;;;5074855;28;20048;-36
2024/03/20 04:09:25;;;;;;;5.75;0.85;;;;;;;;;;5074511;28;20591;-36
2024/03/20 04:11:52;;;;;;;5.38;1.40;;;;;;;;;;5074565;28;20033;-36
2024/03/20 04:14:19;;;;;;;4.07;1.35;;;;;;;;;;5074661;28;20021;-36
2024/03/20 04:16:46;;;;;;;5.30;1.75;;;;;;;;;;5074562;28;20024;-36
2024/03/20 04:19:13;;;;;;;5.78;1.30;;;;;;;;;;5074413;28;20028;-36
2024/03/20 04:21:39;;;;;;;3.28;1.40;;;;;;;;;;5074427;28;20029;-36
2024/03/20 04:24:07;;;;;;;7.20;2.03;;;;;;;;;;5074432;28;20031;-36
2024/03/20 04:26:33;;;;;;;4.13;1.40;;;;;;;;;;5089991;28;20021;-36
2024/03/20 04:29:00;;;;;;;7.65;1.73;;;;;;;;;;5089743;28;20033;-36
2024/03/20 04:31:27;;;;;;;4.55;1.80;;;;;;;;;;5074208;28;20051;-36
2024/03/20 04:33:55;;;;;;;5.28;1.65;;;;;;;;;;5074343;28;20542;-36
2024/03/20 04:36:22;;;;;;;7.45;1.73;;;;;;;;;;5074084;28;20115;-36
2024/03/20 04:38:49;;;;;;;7.00;2.15;;;;;;;;;;5074131;28;20028;-36
2024/03/20 04:41:15;;;;;;;4.03;1.73;;;;;;;;;;5074105;28;20032;-35
2024/03/20 04:43:43;;;;;;;4.45;1.80;;;;;;;;;;5073431;28;20031;-36
2024/03/20 04:46:10;;;;;;;5.60;1.90;;;;;;;;;;5073966;28;20475;-36
2024/03/20 04:48:37;;;;;;;4.43;1.50;;;;;;;;;;5073978;28;20101;-37
2024/03/20 04:51:04;;;;;;;3.38;1.45;;;;;;;;;;5073843;28;20028;-37
2024/03/20 04:53:31;;;;;;;4.63;1.50;;;;;;;;;;5073884;28;20396;-39
2024/03/20 04:55:58;;;;;;;3.75;1.38;;;;;;;;;;5073672;28;20554;-37
2024/03/20 04:58:25;;;;;;;4.60;1.55;;;;;;;;;;5073825;28;20024;-36
2024/03/20 05:00:52;;;;;;;4.90;1.70;;;;;;;;;;5073767;28;20422;-37
2024/03/20 05:03:19;;;;;;;3.45;1.20;;;;;;;;;;5073716;28;20084;-36
2024/03/20 05:05:46;;;;;;;3.30;1.20;;;;;;;;;;5073593;28;20020;-37
2024/03/20 05:08:13;;;;;;;4.80;1.65;;;;;;;;;;5073585;28;20037;-37
2024/03/20 05:10:41;;;;;;;5.70;1.85;;;;;;;;;;5073550;28;20474;-37
2024/03/20 05:13:09;;;;;;;3.45;1.33;;;;;;;;;;5073427;28;20086;-36
2024/03/20 05:15:41;;;;;;;3.30;1.33;;;;;;;;;;5073438;28;20024;-37
2024/03/20 05:18:08;;;;;;;3.85;1.40;;;;;;;;;;5073654;28;20386;-37
2024/03/20 05:20:35;;;;;;;2.83;1.33;;;;;;;;;;5073437;28;20024;-36
2024/03/20 05:23:02;;;;;;;3.92;1.50;;;;;;;;;;5073315;28;20072;-37
2024/03/20 05:25:30;;;;;;;4.30;1.75;;;;;;;;;;5073354;28;20043;-37
2024/03/20 05:27:57;;;;;;;7.28;1.95;;;;;;;;;;5073149;28;20043;-37
2024/03/20 05:30:24;;;;;;;4.00;1.80;;;;;;;;;;5073049;28;20025;-37
2024/03/20 05:32:51;;;;;;;3.95;1.83;;;;;;;;;;5072975;28;20409;-37
2024/03/20 05:35:18;;;;;;;4.20;1.70;;;;;;;;;;5073183;28;20536;-37
2024/03/20 05:37:45;;;;;;;5.32;1.90;;;;;;;;;;5072989;28;20033;-36
2024/03/20 05:40:12;;;;;;;6.03;2.13;;;;;;;;;;5073009;28;20028;-37
2024/03/20 05:42:39;;;;;;;7.35;2.10;;;;;;;;;;5072873;28;20056;-37
2024/03/20 05:45:06;;;;;;;6.30;2.20;;;;;;;;;;5072810;28;20021;-36
2024/03/20 05:47:34;;;;;;;6.80;2.33;;;;;;;;;;5072800;28;20024;-36
2024/03/20 05:50:01;;;;;;;8.35;1.92;;;;;;;;;;5072708;28;20375;-36
2024/03/20 05:52:28;;;;;;;6.47;2.55;;;;;;;;;;5072680;28;20818;-36
2024/03/20 05:54:56;;;;;;;6.70;2.00;;;;;;;;;;5072084;28;20363;-36
2024/03/20 05:57:23;;;;;;;6.78;2.00;;;;;;;;;;5072126;28;20394;-36
2024/03/20 05:59:50;;;;;;;6.53;2.20;;;;;;;;;;5072647;28;20115;-36
2024/03/20 06:02:17;;;;;;;8.55;2.25;;;;;;;;;;5069938;28;20413;-37
2024/03/20 06:04:44;;;;;;;8.00;2.03;;;;;;;;;;5072527;28;20494;-37
2024/03/20 06:07:11;;;;;;;6.10;2.00;;;;;;;;;;5072494;28;20032;-36
2024/03/20 06:09:39;;;;;;;6.50;2.10;;;;;;;;;;5072397;28;20099;-36
2024/03/20 06:12:06;;;;;;;5.68;1.70;;;;;;;;;;5053206;28;20037;-36
2024/03/20 06:14:33;;;;;;;5.95;2.20;;;;;;;;;;5052240;28;20029;-36
2024/03/20 06:17:01;;;;;;;6.63;2.08;;;;;;;;;;5052317;28;20033;-36
2024/03/20 06:49:10;;;;;;;6.32;2.22;;;;;;;;;;5129724;27;20487;-52
2024/03/20 06:51:38;;;;;;;8.43;2.25;;;;;;;;;;5129738;28;20031;-48
2024/03/20 06:54:16;;;;;;;6.70;2.55;;;;;;;;;;5129375;28;20044;-51
2024/03/20 06:56:52;;;;;;;6.32;2.28;;;;;;;;;;5108982;28;20493;-50
2024/03/20 06:59:19;;;;;;;6.65;2.03;;;;;;;;;;5109140;28;20032;-49
2024/03/20 07:01:46;;;;;;;6.43;2.40;;;;;;;;;;5109095;28;20038;-48
2024/03/20 07:04:13;;;;;;;6.70;2.00;;;;;;;;;;5109046;28;20486;-47
2024/03/20 07:06:40;;;;;;;7.97;2.20;;;;;;;;;;5108848;28;20024;-47
2024/03/20 07:09:08;;;;;;;7.05;2.35;;;;;;;;;;5109011;28;20099;-49
2024/03/20 07:11:35;;;;;;;4.18;2.20;;;;;;;;;;5108804;28;20032;-49
2024/03/20 07:14:02;;;;;;;4.68;1.80;;;;;;;;;;5108985;28;20038;-47
2024/03/20 07:16:29;;;;;;;4.85;2.00;;;;;;;;;;5108840;28;20063;-47
2024/03/20 07:18:56;;;;;;;3.75;1.80;;;;;;;;;;5119234;28;20416;-48
2024/03/20 07:21:23;;;;;;;4.43;1.73;;;;;;;;;;5129273;28;20034;-49
2024/03/20 07:23:51;;;;;;;7.15;1.95;;;;;;;;;;5129148;28;20130;-49
2024/03/20 07:26:18;;;;;;;5.50;1.70;;;;;;;;;;5128946;28;20063;-47
2024/03/20 07:28:45;;;;;;;5.75;1.95;;;;;;;;;;5129063;28;20081;-48
2024/03/20 07:31:12;;;;;;;3.38;1.70;;;;;;;;;;5129066;28;20080;-47
2024/03/20 07:33:39;;;;;;;5.28;1.60;;;;;;;;;;5129052;28;20451;-47
2024/03/20 07:36:06;;;;;;;5.30;1.88;;;;;;;;;;5128911;28;20092;-47
2024/03/20 07:38:33;;;;;;;3.35;1.52;;;;;;;;;;5113204;28;20023;-46
2024/03/20 07:41:00;;;;;;;3.72;1.48;;;;;;;;;;5108386;28;20024;-47
2024/03/20 07:43:27;;;;;;;6.30;1.50;;;;;;;;;;5108323;28;20027;-48
2024/03/20 07:45:54;;;;;;;3.95;1.60;;;;;;;;;;5108333;28;20040;-48
2024/03/20 07:48:21;;;;;;;4.70;1.40;;;;;;;;;;5103952;28;20069;-47
2024/03/20 07:50:54;;;;;;;3.80;1.52;;;;;;;;;;5094479;28;20386;-49
2024/03/20 07:53:21;;;;;;;4.28;1.60;;;;;;;;;;5094533;28;20439;-48
2024/03/20 07:55:50;;;;;;;5.40;1.60;;;;;;;;;;5094444;28;20512;-47
2024/03/20 07:58:18;;;;;;;4.35;1.30;;;;;;;;;;5094591;28;20390;-47
2024/03/20 08:00:45;;;;;;;2.42;1.30;;;;;;;;;;5094441;28;20028;-48
2024/03/20 08:03:12;;;;;;;3.42;1.20;;;;;;;;;;5094351;28;20489;-49
2024/03/20 08:05:39;;;;;;;3.67;1.40;;;;;;;;;;5094292;28;20031;-49
2024/03/20 08:08:06;;;;;;;4.07;1.20;;;;;;;;;;5094133;28;20024;-47
2024/03/20 08:10:33;;;;;;;2.45;1.13;;;;;;;;;;5094243;28;20088;-48
2024/03/20 08:13:00;;;;;;;3.40;1.35;;;;;;;;;;5094207;28;20111;-48
2024/03/20 08:15:27;;;;;;;2.45;1.20;;;;;;;;;;5094165;28;20020;-48
2024/03/20 08:17:54;;;;;;;3.50;1.40;;;;;;;;;;5094042;28;20038;-47
2024/03/20 08:20:23;;;;;;;2.63;1.10;;;;;;;;;;5093947;28;20036;-47
2024/03/20 08:22:50;;;;;;;4.30;1.30;;;;;;;;;;5093908;28;20101;-48
2024/03/20 08:25:17;;;;;;;4.10;1.40;;;;;;;;;;5093950;28;20032;-49
2024/03/20 08:27:44;;;;;;;2.50;1.30;;;;;;;;;;5093707;28;20537;-47
2024/03/20 08:30:13;;;;;;;4.28;1.40;;;;;;;;;;5093917;28;20039;-47
2024/03/20 08:32:40;;;;;;;2.53;1.00;;;;;;;;;;5093737;28;20473;-47
2024/03/20 08:35:07;;;;;;;2.75;1.10;;;;;;;;;;5093715;28;20027;-47
2024/03/20 08:37:35;;;;;;;1.92;1.00;;;;;;;;;;5099803;28;20039;-47
2024/03/20 08:40:03;;;;;;;4.10;1.10;;;;;;;;;;5114059;28;20028;-49
2024/03/20 08:42:30;;;;;;;4.50;1.30;;;;;;;;;;5113849;28;20031;-48
2024/03/20 08:44:57;;;;;;;4.30;1.65;;;;;;;;;;5103147;28;20427;-47
2024/03/20 08:47:24;;;;;;;3.35;1.27;;;;;;;;;;5109684;28;20048;-48
2024/03/20 08:49:51;;;;;;;3.55;1.20;;;;;;;;;;5093418;28;20082;-49
2024/03/20 08:52:18;;;;;;;1.60;1.00;;;;;;;;;;5093409;28;20031;-47
2024/03/20 08:54:45;;;;;;;2.83;1.20;;;;;;;;;;5093346;28;20054;-48
2024/03/20 08:57:13;;;;;;;2.78;0.90;;;;;;;;;;5093230;28;20032;-47
2024/03/20 08:59:39;;;;;;;2.65;1.17;;;;;;;;;;5092964;28;20039;-47
2024/03/20 09:02:08;;;;;;;4.43;1.08;;;;;;;;;;5092644;28;20400;-48
2024/03/20 09:04:35;;;;;;;2.88;1.02;;;;;;;;;;5093158;28;20028;-48
2024/03/20 09:07:03;;;;;;;3.90;1.05;;;;;;;;;;5092952;28;20028;-49
2024/03/20 09:09:30;;;;;;;2.78;1.00;;;;;;;;;;5093124;28;20052;-48
2024/03/20 09:11:57;;;;;;;5.00;1.42;;;;;;;;;;5093003;28;20027;-47
2024/03/20 09:14:24;;;;;;;3.72;1.40;;;;;;;;;;5092920;28;20024;-47
2024/03/20 09:16:53;;;;;;;2.10;1.10;;;;;;;;;;5092898;28;20032;-48
2024/03/20 09:19:23;;;;;;;3.80;1.27;;;;;;;;;;5092793;28;20381;-49
2024/03/20 09:21:50;;;;;;;2.22;1.15;;;;;;;;;;5092906;28;20031;-47
2024/03/20 09:24:19;;;;;;;3.30;1.42;;;;;;;;;;5092829;28;20032;-47
2024/03/20 09:26:46;;;;;;;3.08;1.38;;;;;;;;;;5092700;28;20039;-49
2024/03/20 09:29:14;;;;;;;5.68;1.48;;;;;;;;;;5092769;28;20024;-49
2024/03/20 09:31:41;;;;;;;2.38;1.05;;;;;;;;;;5091653;28;20085;-50
2024/03/20 09:34:08;;;;;;;3.55;1.10;;;;;;;;;;5091666;28;20097;-49
2024/03/20 09:36:35;;;;;;;4.18;1.10;;;;;;;;;;5091696;28;20032;-49
2024/03/20 09:39:03;;;;;;;4.30;1.10;;;;;;;;;;5091540;28;20064;-47
2024/03/20 09:41:32;;;;;;;4.15;1.20;;;;;;;;;;5092019;28;20070;-51
2024/03/20 09:44:00;;;;;;;3.83;1.08;;;;;;;;;;5091847;28;20035;-49
2024/03/20 09:46:28;;;;;;;3.50;1.45;;;;;;;;;;5091664;28;20024;-53
2024/03/20 09:48:56;;;;;;;2.70;1.27;;;;;;;;;;5107321;28;20127;-50
2024/03/20 09:51:23;;;;;;;3.10;1.20;;;;;;;;;;5091988;28;20115;-52
2024/03/20 09:53:50;;;;;;;3.42;1.30;;;;;;;;;;5092181;28;20020;-49
2024/03/20 09:56:20;;;;;;;6.20;1.33;;;;;;;;;;5092074;28;20051;-51
2024/03/20 09:58:48;;;;;;;4.72;1.23;;;;;;;;;;5091255;28;20038;-49
2024/03/20 10:01:22;;;;;;;4.78;1.10;;;;;;;;;;5091199;28;20028;-47
2024/03/20 10:03:55;;;;;;;3.35;1.02;;;;;;;;;;5091935;28;20121;-46
2024/03/20 10:06:27;;;;;;;8.02;1.10;;;;;;;;;;5091794;28;20174;-50
2024/03/20 10:08:54;;;;;;;7.93;1.60;;;;;;;;;;5093401;28;20481;-51
2024/03/20 10:11:23;;;;;;;4.47;1.27;;;;;;;;;;5091287;28;20024;-52
2024/03/20 10:13:51;;;;;;;6.15;1.30;;;;;;;;;;5108792;28;20490;-47
2024/03/20 10:16:18;;;;;;;10.15;1.52;;;;;;;;;;5112221;28;20083;-41
2024/03/20 10:18:45;;;;;;;9.00;1.77;;;;;;;;;;5110348;28;20453;-47
2024/03/20 10:21:13;;;;;;;5.25;1.27;;;;;;;;;;5091837;28;20031;-41
2024/03/20 10:23:40;;;;;;;9.52;1.60;;;;;;;;;;5088713;28;20090;-53
2024/03/20 10:26:08;;;;;;;5.97;1.50;;;;;;;;;;5089918;28;20036;-54
2024/03/20 10:28:36;;;;;;;7.28;1.42;;;;;;;;;;5093288;28;20039;-52
2024/03/20 10:31:05;;;;;;;6.95;1.70;;;;;;;;;;5102106;28;20032;-51
2024/03/20 10:33:34;;;;;;;6.47;1.60;;;;;;;;;;5101172;28;20476;-49
2024/03/20 10:36:02;;;;;;;8.07;1.50;;;;;;;;;;5095772;28;20035;-51
2024/03/20 10:38:29;;;;;;;6.28;1.30;;;;;;;;;;5103929;28;20032;-50
2024/03/20 10:40:57;;;;;;;6.72;1.42;;;;;;;;;;5099202;28;20057;-47
2024/03/20 10:43:25;;;;;;;6.13;1.50;;;;;;;;;;5102752;28;20024;-47
2024/03/20 10:45:56;;;;;;;6.80;1.50;;;;;;;;;;5111929;28;20035;-46
2024/03/20 10:48:24;;;;;;;3.83;1.52;;;;;;;;;;5100284;28;20059;-54
2024/03/20 10:50:55;;;;;;;4.80;1.75;;;;;;;;;;5103077;28;20028;-46
2024/03/20 10:53:22;;;;;;;6.00;1.70;;;;;;;;;;5094080;28;20032;-46
2024/03/20 10:55:51;;;;;;;5.47;1.48;;;;;;;;;;5091315;28;20049;-45
2024/03/20 10:58:19;;;;;;;5.18;1.70;;;;;;;;;;5090632;28;20536;-46
2024/03/20 11:00:52;;;;;;;7.35;1.90;;;;;;;;;;5087535;28;20020;-45
2024/03/20 11:03:37;;;;;;;10.77;2.53;;;;;;;;;;5091392;28;20032;-45
2024/03/20 11:06:24;;;;;;;3.65;1.88;;;;;;;;;;5091322;28;20032;-47
2024/03/20 11:08:58;;;;;;;6.35;1.88;;;;;;;;;;5091366;28;20375;-44
2024/03/20 11:11:29;;;;;;;6.13;1.70;;;;;;;;;;5087843;28;20035;-45
2024/03/20 11:13:59;;;;;;;7.85;2.00;;;;;;;;;;5090491;28;20573;-45
2024/03/20 11:16:28;;;;;;;10.55;2.42;;;;;;;;;;5091236;28;20663;-45
2024/03/20 11:19:05;;;;;;;10.27;2.38;;;;;;;;;;5091227;28;20040;-45
2024/03/20 11:21:32;;;;;;;11.40;2.63;;;;;;;;;;5091087;28;20036;-44
2024/03/20 11:24:03;;;;;;;8.02;2.60;;;;;;;;;;5087696;28;20103;-45
2024/03/20 11:26:34;;;;;;;9.35;2.60;;;;;;;;;;5094787;28;20036;-45
2024/03/20 11:29:02;;;;;;;6.78;2.55;;;;;;;;;;5094816;28;20405;-45
2024/03/20 11:31:30;;;;;;;8.85;2.42;;;;;;;;;;5095031;28;20028;-45
2024/03/20 11:33:57;;;;;;;7.75;2.50;;;;;;;;;;5094739;28;20048;-48
2024/03/20 11:36:24;;;;;;;7.13;2.33;;;;;;;;;;5091327;28;20039;-45
2024/03/20 11:38:51;;;;;;;7.07;2.38;;;;;;;;;;5102732;28;20067;-52
2024/03/20 11:41:18;;;;;;;12.60;2.80;;;;;;;;;;5093685;28;20032;-45
2024/03/20 11:43:46;;;;;;;7.70;2.13;;;;;;;;;;5093853;28;20032;-39
2024/03/20 11:46:15;;;;;;;9.77;2.60;;;;;;;;;;5093500;28;20036;-44
2024/03/20 11:48:46;;;;;;;8.48;2.50;;;;;;;;;;5090121;28;20040;-40
2024/03/20 11:51:15;;;;;;;9.93;2.70;;;;;;;;;;5109733;28;20034;-50
2024/03/20 11:53:43;;;;;;;9.00;2.55;;;;;;;;;;5099082;28;20036;-47
2024/03/20 11:56:10;;;;;;;7.53;2.38;;;;;;;;;;5096410;28;20122;-46
2024/03/20 11:58:38;;;;;;;7.65;2.33;;;;;;;;;;5091805;28;20032;-53
2024/03/20 12:01:08;;;;;;;7.68;2.22;;;;;;;;;;5089694;28;20371;-48
2024/03/20 12:03:36;;;;;;;9.00;2.17;;;;;;;;;;5093143;28;20028;-48
2024/03/20 12:06:09;;;;;;;6.55;1.92;;;;;;;;;;5093166;28;20132;-48
2024/03/20 12:08:37;;;;;;;7.13;2.13;;;;;;;;;;5093298;28;20036;-46
2024/03/20 12:11:23;;;;;;;11.93;2.30;;;;;;;;;;5089694;28;20062;-48
2024/03/20 12:13:53;;;;;;;10.98;2.30;;;;;;;;;;5092557;28;20048;-45
2024/03/20 12:16:21;;;;;;;11.50;2.40;;;;;;;;;;5093820;28;20032;-45
2024/03/20 12:18:48;;;;;;;5.97;2.40;;;;;;;;;;5093919;28;20036;-45
2024/03/20 12:21:17;;;;;;;6.63;2.33;;;;;;;;;;5093617;28;20034;-46
2024/03/20 12:23:45;;;;;;;8.32;2.30;;;;;;;;;;5089484;28;20067;-45
2024/03/20 12:26:13;;;;;;;6.32;2.08;;;;;;;;;;5093630;28;20023;-45
2024/03/20 12:28:40;;;;;;;6.88;2.10;;;;;;;;;;5093758;28;20034;-45
2024/03/20 12:31:13;;;;;;;10.25;2.55;;;;;;;;;;5093844;28;20032;-46
2024/03/20 12:33:41;;;;;;;;;;;;;;;;;;5094045;28;20028;-45
2024/03/20 12:36:08;;;;;;;5.43;1.95;;;;;;;;;;5088739;28;19953;-45
2024/03/20 12:38:37;;;;;;;9.05;2.58;;;;;;;;;;5093636;28;20078;-45
2024/03/20 12:41:08;;;;;;;8.93;2.30;;;;;;;;;;5093496;28;20438;-45
2024/03/20 12:43:36;;;;;;;10.18;2.03;;;;;;;;;;5093518;28;20390;-46
2024/03/20 12:46:03;;;;;;;4.43;1.85;;;;;;;;;;5093090;28;20020;-46
2024/03/20 12:48:30;;;;;;;4.95;2.17;;;;;;;;;;5104725;28;20135;-47
2024/03/20 12:50:58;;;;;;;6.45;2.20;;;;;;;;;;5093438;28;20032;-45
2024/03/20 12:53:25;;;;;;;5.97;2.35;;;;;;;;;;5093408;28;20024;-46
2024/03/20 12:55:53;;;;;;;7.40;2.35;;;;;;;;;;5093340;28;20028;-45
2024/03/20 12:58:20;;;;;;;9.05;2.40;;;;;;;;;;5091799;28;20036;-46
2024/03/20 13:00:48;;;;;;;7.18;2.60;;;;;;;;;;5090163;28;20023;-46
2024/03/20 13:03:19;;;;;;;7.00;2.60;;;;;;;;;;5093181;28;20043;-45
2024/03/20 13:05:51;;;;;;;6.88;2.60;;;;;;;;;;5093100;28;20028;-45
2024/03/20 13:08:19;;;;;;;7.03;2.20;;;;;;;;;;5092986;28;20036;-45
2024/03/20 13:10:46;;;;;;;6.28;2.45;;;;;;;;;;5090591;28;20418;-48
2024/03/20 13:13:21;;;;;;;9.18;2.38;;;;;;;;;;5090912;28;20477;-45
2024/03/20 13:15:48;;;;;;;7.82;2.22;;;;;;;;;;5092881;28;20031;-45
2024/03/20 13:18:22;;;;;;;6.60;2.08;;;;;;;;;;5092714;28;20043;-45
2024/03/20 13:20:49;;;;;;;8.93;2.70;;;;;;;;;;5088680;28;20035;-45
2024/03/20 13:23:18;;;;;;;5.65;2.30;;;;;;;;;;5097419;28;20031;-47
2024/03/20 13:25:47;;;;;;;5.95;1.92;;;;;;;;;;5097321;28;20077;-46
2024/03/20 13:28:14;;;;;;;7.78;2.47;;;;;;;;;;5092322;28;20177;-48
2024/03/20 13:30:42;;;;;;;7.47;2.38;;;;;;;;;;5092652;28;20027;-45
2024/03/20 13:33:14;;;;;;;7.85;2.30;;;;;;;;;;5092422;28;20036;-45
2024/03/20 13:35:41;;;;;;;8.70;2.25;;;;;;;;;;5087587;28;20032;-46
2024/03/20 13:38:14;;;;;;;8.35;2.42;;;;;;;;;;5092271;28;20032;-45
2024/03/20 13:40:51;;;;;;;7.68;2.47;;;;;;;;;;5092202;28;20382;-48
2024/03/20 13:45:54;;;;;;;9.75;2.40;;;;;;;;;;5095510;28;20065;-47
2024/03/20 13:48:21;;;;;;;6.97;2.15;;;;;;;;;;5084729;28;20596;-52
2024/03/20 13:50:48;;;;;;;8.82;2.97;;;;;;;;;;5090574;28;20119;-50
2024/03/20 13:53:15;;;;;;;9.25;2.55;;;;;;;;;;5087229;28;20065;-42
2024/03/20 13:55:42;;;;;;;7.13;2.88;;;;;;;;;;5091091;28;20228;-44
2024/03/20 13:58:09;;;;;;;8.65;2.78;;;;;;;;;;5090597;28;20028;-40
2024/03/20 14:00:37;;;;;;;9.50;3.20;;;;;;;;;;5087769;28;20039;-40
2024/03/20 14:03:07;;;;;;;6.53;2.47;;;;;;;;;;5090656;28;20125;-48
2024/03/20 14:05:34;;;;;;;10.15;3.28;;;;;;;;;;5094492;28;20071;-48
2024/03/20 14:08:01;;;;;;;14.80;2.90;;;;;;;;;;5081594;28;20512;-51
2024/03/20 14:10:28;;;;;;;7.47;2.95;;;;;;;;;;5099351;28;20164;-52
2024/03/20 14:12:55;;;;;;;10.60;2.55;;;;;;;;;;5093849;28;20115;-48
2024/03/20 14:15:23;;;;;;;9.60;2.50;;;;;;;;;;5101234;28;20120;-50
2024/03/20 14:17:53;;;;;;;9.35;3.08;;;;;;;;;;5103780;28;20043;-48
2024/03/20 14:20:23;;;;;;;8.40;3.00;;;;;;;;;;5100499;28;20035;-51
2024/03/20 14:22:51;;;;;;;6.97;2.60;;;;;;;;;;5096715;28;20123;-50
2024/03/20 14:25:19;;;;;;;9.48;2.80;;;;;;;;;;5098472;28;20035;-50
2024/03/20 14:27:47;;;;;;;14.35;3.45;;;;;;;;;;5102992;28;20044;-40
2024/03/20 14:30:17;;;;;;;8.90;3.30;;;;;;;;;;5093095;28;20054;-45
2024/03/20 14:32:45;;;;;;;11.85;3.35;;;;;;;;;;5085730;28;20112;-45
2024/03/20 14:35:15;;;;;;;10.75;4.07;;;;;;;;;;5085242;28;20085;-41
2024/03/20 14:37:44;;;;;;;13.13;4.47;;;;;;;;;;5091056;28;20058;-44
2024/03/20 14:40:22;;;;;;;9.50;3.95;;;;;;;;;;5091449;28;20078;-41
2024/03/20 14:42:53;;;;;;;8.15;3.28;;;;;;;;;;5095496;28;20036;-51
2024/03/20 14:45:20;;;;;;;9.18;3.60;;;;;;;;;;5098444;28;20063;-48
2024/03/20 14:47:50;;;;;;;10.98;3.45;;;;;;;;;;5098843;28;20169;-40
2024/03/20 14:50:17;;;;;;;8.65;3.05;;;;;;;;;;5097611;28;20027;-43
2024/03/20 14:52:45;;;;;;;6.80;2.95;;;;;;;;;;5100734;28;20083;-48
2024/03/20 14:55:16;;;;;;;7.97;3.33;;;;;;;;;;5099287;28;20637;-56
2024/03/20 14:57:44;;;;;;;10.53;3.70;;;;;;;;;;5099068;28;20085;-46
2024/03/20 15:00:12;;;;;;;10.25;3.15;;;;;;;;;;5103106;28;20270;-54
2024/03/20 15:02:39;;;;;;;11.68;3.20;;;;;;;;;;5105228;28;20042;-55
2024/03/20 15:05:07;;;;;;;8.43;3.20;;;;;;;;;;5105653;28;20469;-47
2024/03/20 15:07:34;;;;;;;8.07;3.15;;;;;;;;;;5095663;28;20035;-52
2024/03/20 15:10:01;;;;;;;11.18;3.15;;;;;;;;;;5094353;28;20028;-55
2024/03/20 15:12:28;;;;;;;10.98;3.08;;;;;;;;;;5094667;28;20388;-54
2024/03/20 15:14:55;;;;;;;8.00;3.30;;;;;;;;;;5091677;28;20039;-54
2024/03/20 15:17:23;;;;;;;6.63;2.50;;;;;;;;;;5094135;28;20136;-55